createdAt,value
2023-01-13T00:01:34.670Z,2.20
2023-01-13T00:03:48.089Z,2.10
2023-01-13T00:06:00.868Z,2.00
2023-01-13T00:08:13.647Z,1.80
2023-01-13T00:10:26.295Z,2.00
2023-01-13T00:12:40.803Z,1.90
2023-01-13T00:14:53.502Z,1.80
2023-01-13T00:17:06.175Z,1.60
2023-01-13T00:19:18.817Z,1.70
2023-01-13T00:21:31.579Z,1.90
2023-01-13T00:23:44.945Z,1.60
2023-01-13T00:25:59.107Z,1.70
2023-01-13T00:28:11.714Z,1.70
2023-01-13T00:30:24.367Z,1.80
2023-01-13T00:32:36.990Z,1.70
2023-01-13T00:34:49.641Z,1.90
2023-01-13T00:37:02.431Z,1.80
2023-01-13T00:39:15.357Z,1.70
2023-01-13T00:41:29.227Z,1.70
2023-01-13T00:43:42.454Z,1.50
2023-01-13T00:45:55.498Z,1.60
2023-01-13T00:48:08.417Z,1.70
2023-01-13T00:50:21.020Z,1.60
2023-01-13T00:52:33.712Z,1.60
2023-01-13T00:54:46.318Z,1.60
2023-01-13T00:56:58.890Z,1.80
2023-01-13T00:59:13.613Z,1.50
2023-01-13T01:01:26.417Z,1.70
2023-01-13T01:03:39.464Z,1.50
2023-01-13T01:05:52.088Z,1.80
2023-01-13T01:08:05.243Z,1.50
2023-01-13T01:10:17.968Z,1.70
2023-01-13T01:12:30.814Z,1.70
2023-01-13T01:14:43.557Z,1.80
2023-01-13T01:16:56.159Z,1.60
2023-01-13T01:19:10.188Z,2.10
2023-01-13T01:21:24.916Z,1.60
2023-01-13T01:23:38.667Z,1.70
2023-01-13T01:25:51.386Z,1.50
2023-01-13T01:28:04.030Z,1.40
2023-01-13T01:30:16.838Z,1.50
2023-01-13T01:32:29.499Z,1.80
2023-01-13T01:34:42.167Z,2.00
2023-01-13T01:36:54.797Z,1.90
2023-01-13T01:39:07.500Z,1.80
2023-01-13T01:41:26.250Z,1.70
2023-01-13T01:44:04.552Z,1.60
2023-01-13T01:46:17.421Z,1.80
2023-01-13T01:48:40.186Z,1.60
2023-01-13T01:50:53.055Z,1.70
2023-01-13T01:53:12.777Z,1.60
2023-01-13T01:55:34.884Z,1.70
2023-01-13T01:57:54.739Z,1.70
2023-01-13T02:00:08.304Z,1.80
2023-01-13T02:02:22.303Z,1.60
2023-01-13T02:04:40.906Z,1.60
2023-01-13T02:06:53.855Z,1.70
2023-01-13T02:09:07.166Z,1.60
2023-01-13T02:11:50.682Z,1.60
2023-01-13T02:14:03.374Z,1.50
2023-01-13T02:16:23.363Z,1.70
2023-01-13T02:18:47.603Z,1.50
2023-01-13T02:21:07.719Z,1.70
2023-01-13T02:23:57.552Z,1.70
2023-01-13T02:26:21.518Z,1.60
2023-01-13T02:29:09.703Z,1.50
2023-01-13T02:31:41.088Z,1.60
2023-01-13T02:34:01.403Z,1.60
2023-01-13T02:36:29.327Z,1.70
2023-01-13T02:38:55.836Z,1.60
2023-01-13T02:41:37.501Z,1.50
2023-01-13T02:44:08.216Z,1.50
2023-01-13T02:46:27.709Z,1.50
2023-01-13T02:48:41.975Z,1.60
2023-01-13T02:51:00.107Z,1.80
2023-01-13T02:53:22.913Z,1.30
2023-01-13T02:55:39.349Z,1.60
2023-01-13T02:57:53.224Z,1.70
2023-01-13T03:00:11.424Z,1.70
2023-01-13T03:02:25.760Z,1.70
2023-01-13T03:04:48.836Z,1.40
2023-01-13T03:07:22.942Z,1.50
2023-01-13T03:09:43.600Z,1.70
2023-01-13T03:12:09.169Z,1.80
2023-01-13T03:14:38.920Z,1.70
2023-01-13T03:17:27.213Z,1.70
2023-01-13T03:20:02.509Z,1.80
2023-01-13T03:22:26.772Z,1.50
2023-01-13T03:24:50.037Z,1.60
2023-01-13T03:27:15.221Z,1.70
2023-01-13T03:29:54.803Z,1.60
2023-01-13T03:32:23.437Z,1.60
2023-01-13T03:34:49.095Z,1.60
2023-01-13T03:37:05.669Z,1.60
2023-01-13T03:39:24.921Z,1.50
2023-01-13T03:41:57.262Z,1.70
2023-01-13T03:44:22.862Z,1.50
2023-01-13T03:47:04.071Z,1.70
2023-01-13T03:49:22.321Z,1.40
2023-01-13T03:51:39.110Z,1.70
2023-01-13T03:53:58.238Z,1.80
2023-01-13T03:56:19.723Z,1.60
2023-01-13T03:58:40.481Z,1.50
2023-01-13T04:01:01.355Z,1.50
2023-01-13T04:03:23.201Z,1.70
2023-01-13T04:05:42.033Z,1.70
2023-01-13T04:08:16.639Z,1.60
2023-01-13T04:10:41.397Z,1.70
2023-01-13T04:13:01.292Z,1.60
2023-01-13T04:15:14.528Z,1.40
2023-01-13T04:17:27.064Z,1.40
2023-01-13T04:19:39.672Z,1.60
2023-01-13T04:21:52.436Z,1.50
2023-01-13T04:24:05.158Z,1.60
2023-01-13T04:26:19.671Z,1.50
2023-01-13T04:28:33.514Z,5.70
2023-01-13T04:30:46.905Z,4.20
2023-01-13T04:32:59.657Z,2.10
2023-01-13T04:35:12.332Z,1.60
2023-01-13T04:37:24.883Z,1.80
2023-01-13T04:39:37.639Z,1.50
2023-01-13T04:41:59.198Z,1.40
2023-01-13T04:44:11.723Z,1.70
2023-01-13T04:46:24.296Z,1.30
2023-01-13T04:48:37.006Z,1.40
2023-01-13T04:50:49.555Z,1.40
2023-01-13T04:53:02.301Z,1.50
2023-01-13T04:55:16.064Z,1.50
2023-01-13T04:57:28.701Z,1.40
2023-01-13T04:59:42.049Z,1.70
2023-01-13T05:01:54.685Z,1.60
2023-01-13T05:04:08.425Z,1.40
2023-01-13T05:06:21.044Z,1.50
2023-01-13T05:08:33.591Z,1.70
2023-01-13T05:10:46.118Z,1.60
2023-01-13T05:13:17.316Z,1.60
2023-01-13T05:15:48.213Z,1.80
2023-01-13T05:18:01.582Z,1.90
2023-01-13T05:20:14.523Z,1.50
2023-01-13T05:22:45.779Z,1.40
2023-01-13T05:25:17.232Z,1.80
2023-01-13T05:27:30.838Z,1.60
2023-01-13T05:29:43.425Z,1.40
2023-01-13T05:31:55.951Z,1.60
2023-01-13T05:34:08.528Z,2.20
2023-01-13T05:36:21.112Z,1.80
2023-01-13T05:38:33.662Z,1.50
2023-01-13T05:41:05.115Z,1.70
2023-01-13T05:43:19.815Z,1.40
2023-01-13T05:45:32.462Z,1.50
2023-01-13T05:47:45.159Z,1.40
2023-01-13T05:49:57.777Z,1.50
2023-01-13T05:52:10.319Z,1.60
2023-01-13T05:54:22.893Z,1.50
2023-01-13T05:56:35.468Z,1.40
2023-01-13T05:58:47.991Z,1.40
2023-01-13T06:01:07.164Z,1.40
2023-01-13T06:03:20.219Z,1.30
2023-01-13T06:05:33.696Z,1.60
2023-01-13T06:07:46.195Z,1.40
2023-01-13T06:09:58.790Z,1.50
2023-01-13T06:12:12.564Z,1.40
2023-01-13T06:14:25.196Z,1.40
2023-01-13T06:16:38.585Z,1.40
2023-01-13T06:18:51.155Z,1.30
2023-01-13T06:21:04.846Z,1.60
2023-01-13T06:23:17.430Z,1.20
2023-01-13T06:25:49.695Z,1.40
2023-01-13T06:28:03.006Z,1.20
2023-01-13T06:30:15.758Z,1.00
2023-01-13T06:32:35.463Z,1.20
2023-01-13T06:34:53.661Z,1.10
2023-01-13T06:37:06.622Z,1.20
2023-01-13T06:39:24.375Z,1.00
2023-01-13T06:41:56.129Z,1.10
2023-01-13T06:44:09.028Z,1.40
2023-01-13T06:46:21.590Z,1.50
2023-01-13T06:48:35.386Z,1.00
2023-01-13T06:50:48.163Z,1.20
2023-01-13T06:53:00.656Z,1.30
2023-01-13T06:55:13.565Z,1.30
2023-01-13T06:57:26.194Z,1.00
2023-01-13T06:59:39.107Z,1.70
2023-01-13T07:01:52.039Z,1.10
2023-01-13T07:04:04.848Z,1.30
2023-01-13T07:06:17.413Z,1.10
2023-01-13T07:08:29.995Z,1.20
2023-01-13T07:10:42.587Z,1.10
2023-01-13T07:13:14.059Z,1.10
2023-01-13T07:15:27.008Z,1.00
2023-01-13T07:17:39.614Z,1.00
2023-01-13T07:19:53.065Z,1.10
2023-01-13T07:22:05.612Z,1.20
2023-01-13T07:24:19.098Z,1.00
2023-01-13T07:26:31.675Z,1.40
2023-01-13T07:28:44.263Z,1.10
2023-01-13T07:30:57.559Z,1.30
2023-01-13T07:33:10.090Z,1.20
2023-01-13T07:35:23.445Z,1.10
2023-01-13T07:37:38.065Z,1.20
2023-01-13T07:39:50.686Z,1.20
2023-01-13T07:42:22.271Z,1.10
2023-01-13T07:44:34.770Z,1.30
2023-01-13T07:46:47.332Z,1.30
2023-01-13T07:48:59.956Z,1.40
2023-01-13T07:51:12.670Z,1.10
2023-01-13T07:53:25.948Z,1.20
2023-01-13T07:55:43.096Z,1.30
2023-01-13T07:57:55.604Z,1.30
2023-01-13T08:00:11.009Z,1.10
2023-01-13T08:02:25.494Z,1.10
2023-01-13T08:04:38.642Z,1.40
2023-01-13T08:06:51.151Z,1.40
2023-01-13T08:09:04.123Z,1.10
2023-01-13T08:11:17.285Z,1.50
2023-01-13T08:13:30.152Z,1.20
2023-01-13T08:15:43.810Z,1.30
2023-01-13T08:17:56.370Z,1.50
2023-01-13T08:20:09.733Z,1.10
2023-01-13T08:22:22.827Z,1.40
2023-01-13T08:24:35.340Z,1.40
2023-01-13T08:26:47.897Z,1.20
2023-01-13T08:29:00.454Z,1.30
2023-01-13T08:31:16.260Z,1.40
2023-01-13T08:33:29.813Z,1.20
2023-01-13T08:35:42.363Z,1.30
2023-01-13T08:37:54.910Z,1.20
2023-01-13T08:40:09.881Z,1.10
2023-01-13T08:42:22.444Z,1.10
2023-01-13T08:44:35.066Z,1.20
2023-01-13T08:46:47.561Z,1.40
2023-01-13T08:49:00.123Z,1.30
2023-01-13T08:51:12.991Z,1.10
2023-01-13T08:53:25.570Z,1.40
2023-01-13T08:55:40.060Z,1.30
2023-01-13T08:57:54.464Z,1.30
2023-01-13T09:00:09.774Z,1.40
2023-01-13T09:02:24.144Z,1.20
2023-01-13T09:04:36.837Z,1.50
2023-01-13T09:06:50.554Z,1.30
2023-01-13T09:09:03.441Z,1.20
2023-01-13T09:11:37.923Z,1.40
2023-01-13T09:13:50.623Z,1.30
2023-01-13T09:16:03.268Z,1.50
2023-01-13T09:18:15.835Z,1.70
2023-01-13T09:20:28.378Z,1.60
2023-01-13T09:22:41.389Z,1.40
2023-01-13T09:24:55.122Z,1.50
2023-01-13T09:27:09.682Z,1.50
2023-01-13T09:29:22.604Z,1.60
2023-01-13T09:31:35.309Z,1.70
2023-01-13T09:34:06.798Z,1.80
2023-01-13T09:36:19.735Z,1.70
2023-01-13T09:38:32.271Z,1.60
2023-01-13T09:40:48.997Z,1.90
2023-01-13T09:43:33.226Z,2.10
2023-01-13T09:45:59.744Z,2.20
2023-01-13T09:48:25.245Z,2.00
2023-01-13T09:51:00.653Z,1.70
2023-01-13T09:53:23.003Z,1.70
2023-01-13T09:55:36.893Z,1.60
2023-01-13T09:57:49.376Z,1.50
2023-01-13T10:00:02.518Z,1.70
2023-01-13T10:02:54.570Z,1.60
2023-01-13T10:05:28.340Z,1.50
2023-01-13T10:07:49.627Z,1.90
2023-01-13T10:10:03.875Z,1.80
2023-01-13T10:12:43.630Z,2.00
2023-01-13T10:14:56.285Z,1.60
2023-01-13T10:17:27.572Z,1.70
2023-01-13T10:20:06.161Z,2.20
2023-01-13T10:22:25.062Z,1.80
2023-01-13T10:25:08.213Z,2.20
2023-01-13T10:27:28.912Z,2.00
2023-01-13T10:29:41.482Z,1.80
2023-01-13T10:31:55.487Z,2.10
2023-01-13T10:34:08.010Z,1.70
2023-01-13T10:36:21.546Z,2.10
2023-01-13T10:38:43.495Z,1.80
2023-01-13T10:41:02.353Z,1.70
2023-01-13T10:43:15.007Z,1.70
2023-01-13T10:45:27.504Z,1.90
2023-01-13T10:47:40.444Z,2.00
2023-01-13T10:50:11.130Z,2.10
2023-01-13T10:52:27.756Z,1.50
2023-01-13T10:54:51.666Z,1.90
2023-01-13T10:57:15.616Z,1.80
2023-01-13T10:59:28.185Z,2.10
2023-01-13T11:01:55.951Z,1.90
2023-01-13T11:04:28.933Z,1.90
2023-01-13T11:06:45.923Z,1.60
2023-01-13T11:08:58.713Z,1.70
2023-01-13T11:11:40.667Z,1.70
2023-01-13T11:14:17.932Z,1.80
2023-01-13T11:16:30.784Z,1.70
2023-01-13T11:19:11.895Z,1.70
2023-01-13T11:21:30.355Z,1.70
2023-01-13T11:23:49.998Z,1.70
2023-01-13T11:26:10.798Z,1.80
2023-01-13T11:28:35.304Z,1.50
2023-01-13T11:30:56.615Z,1.50
2023-01-13T11:33:15.232Z,1.60
2023-01-13T11:35:31.471Z,1.90
2023-01-13T11:37:51.288Z,1.80
2023-01-13T11:40:13.504Z,1.60
2023-01-13T11:42:41.311Z,1.40
2023-01-13T11:44:59.588Z,1.90
2023-01-13T11:47:13.675Z,2.30
2023-01-13T11:49:30.765Z,2.20
2023-01-13T11:51:54.908Z,2.50
2023-01-13T11:54:40.987Z,2.20
2023-01-13T11:57:19.521Z,2.70
2023-01-13T12:00:14.561Z,1.80
2023-01-13T12:03:12.487Z,1.90
2023-01-13T12:05:44.564Z,1.90
2023-01-13T12:08:45.723Z,1.90
2023-01-13T12:11:25.443Z,2.10
2023-01-13T12:14:19.848Z,3.80
2023-01-13T12:16:32.891Z,2.70
2023-01-13T12:19:07.432Z,2.50
2023-01-13T12:21:28.105Z,2.30
2023-01-13T12:23:50.184Z,2.20
2023-01-13T12:26:12.235Z,2.10
2023-01-13T12:28:41.460Z,2.10
2023-01-13T12:31:00.788Z,2.20
2023-01-13T12:33:59.087Z,2.60
2023-01-13T12:36:34.269Z,2.10
2023-01-13T12:38:57.855Z,2.00
2023-01-13T12:41:24.664Z,2.20
2023-01-13T12:43:57.048Z,2.00
2023-01-13T12:46:18.508Z,2.10
2023-01-13T12:48:59.223Z,1.90
2023-01-13T12:51:34.270Z,2.40
2023-01-13T12:53:46.824Z,2.40
2023-01-13T12:56:27.263Z,2.40
2023-01-13T12:58:39.849Z,1.90
2023-01-13T13:01:00.872Z,2.00
2023-01-13T13:03:18.554Z,2.50
2023-01-13T13:06:01.323Z,2.20
2023-01-13T13:08:40.936Z,2.70
2023-01-13T13:11:55.238Z,3.20
2023-01-13T13:14:13.785Z,4.60
2023-01-13T13:16:26.460Z,4.60
2023-01-13T13:18:39.089Z,3.00
2023-01-13T13:21:08.954Z,2.70
2023-01-13T13:23:48.293Z,3.50
2023-01-13T13:26:16.323Z,7.50
2023-01-13T13:28:36.893Z,8.30
2023-01-13T13:31:01.849Z,6.90
2023-01-13T13:33:46.897Z,9.10
2023-01-13T13:35:59.363Z,7.10
2023-01-13T13:38:43.086Z,4.50
2023-01-13T13:41:14.603Z,7.00
2023-01-13T13:43:47.023Z,2.30
2023-01-13T13:46:18.499Z,3.30
2023-01-13T13:48:31.201Z,3.30
2023-01-13T13:50:48.197Z,2.20
2023-01-13T13:53:08.461Z,2.10
2023-01-13T13:55:24.775Z,2.10
2023-01-13T13:57:40.035Z,1.90
2023-01-13T13:59:58.415Z,1.90
2023-01-13T14:02:19.909Z,1.90
2023-01-13T14:04:35.500Z,2.30
2023-01-13T14:07:06.513Z,2.60
2023-01-13T14:09:20.606Z,2.50
2023-01-13T14:11:33.869Z,3.10
2023-01-13T14:13:46.445Z,3.10
2023-01-13T14:16:09.776Z,2.60
2023-01-13T14:18:23.149Z,2.40
2023-01-13T14:20:36.911Z,2.40
2023-01-13T14:22:52.290Z,2.50
2023-01-13T14:25:30.452Z,2.40
2023-01-13T14:27:43.290Z,2.40
2023-01-13T14:29:59.161Z,2.90
2023-01-13T14:32:18.473Z,3.10
2023-01-13T14:34:33.380Z,3.70
2023-01-13T14:36:50.924Z,4.10
2023-01-13T14:39:03.444Z,3.30
2023-01-13T14:41:29.107Z,2.00
2023-01-13T14:43:46.557Z,2.40
2023-01-13T14:46:02.451Z,2.20
2023-01-13T14:48:15.054Z,2.10
2023-01-13T14:50:32.653Z,1.60
2023-01-13T14:52:50.825Z,1.50
2023-01-13T14:55:06.825Z,1.70
2023-01-13T14:57:33.031Z,1.20
2023-01-13T15:00:13.291Z,2.00
2023-01-13T15:02:33.087Z,2.20
2023-01-13T15:04:46.599Z,2.40
2023-01-13T15:07:00.201Z,2.00
2023-01-13T15:09:13.652Z,2.00
2023-01-13T15:11:28.860Z,2.00
2023-01-13T15:13:53.053Z,3.30
2023-01-13T15:16:21.924Z,9.30
2023-01-13T15:18:39.898Z,6.10
2023-01-13T15:20:53.115Z,5.00
2023-01-13T15:23:05.773Z,8.90
2023-01-13T15:25:19.013Z,7.70
2023-01-13T15:27:31.565Z,6.90
2023-01-13T15:29:44.231Z,7.70
2023-01-13T15:31:56.826Z,6.90
2023-01-13T15:34:09.375Z,6.50
2023-01-13T15:36:31.132Z,9.20
2023-01-13T15:38:43.873Z,12.50
2023-01-13T15:40:56.497Z,11.10
2023-01-13T15:43:36.947Z,7.80
2023-01-13T15:46:25.041Z,6.50
2023-01-13T15:48:37.692Z,4.60
2023-01-13T15:50:51.109Z,6.50
2023-01-13T15:53:04.719Z,6.10
2023-01-13T15:55:17.351Z,7.50
2023-01-13T15:57:35.612Z,9.00
2023-01-13T15:59:48.731Z,9.00
2023-01-13T16:02:01.260Z,7.40
2023-01-13T16:04:13.808Z,5.90
2023-01-13T16:06:32.555Z,4.20
2023-01-13T16:08:45.171Z,4.40
2023-01-13T16:10:57.711Z,4.40
2023-01-13T16:13:11.346Z,5.00
2023-01-13T16:15:25.910Z,6.90
2023-01-13T16:17:38.667Z,23.00
2023-01-13T16:19:51.875Z,21.90
2023-01-13T16:22:04.441Z,12.30
2023-01-13T16:24:16.970Z,14.30
2023-01-13T16:26:30.045Z,16.50
2023-01-13T16:28:42.544Z,6.30
2023-01-13T16:30:55.122Z,5.70
2023-01-13T16:33:07.664Z,7.00
2023-01-13T16:35:20.678Z,8.10
2023-01-13T16:37:33.290Z,5.50
2023-01-13T16:39:45.931Z,6.00
2023-01-13T16:41:58.506Z,7.50
2023-01-13T16:44:11.091Z,8.00
2023-01-13T16:46:26.220Z,7.60
2023-01-13T16:48:38.762Z,9.10
2023-01-13T16:50:51.256Z,7.10
2023-01-13T16:53:04.421Z,7.00
2023-01-13T16:55:17.034Z,6.70
2023-01-13T16:57:29.586Z,6.40
2023-01-13T16:59:42.195Z,6.70
2023-01-13T17:01:54.859Z,8.70
2023-01-13T17:04:14.751Z,10.70
2023-01-13T17:06:38.357Z,12.10
2023-01-13T17:08:52.905Z,13.60
2023-01-13T17:11:05.461Z,11.20
2023-01-13T17:13:19.107Z,7.30
2023-01-13T17:15:34.080Z,7.70
2023-01-13T17:17:51.787Z,6.00
2023-01-13T17:20:05.333Z,5.70
2023-01-13T17:22:19.154Z,6.00
2023-01-13T17:24:35.034Z,5.90
2023-01-13T17:26:49.898Z,6.60
2023-01-13T17:29:05.967Z,7.60
2023-01-13T17:31:18.553Z,7.60
2023-01-13T17:33:37.036Z,7.50
2023-01-13T17:35:49.624Z,8.30
2023-01-13T17:38:02.962Z,7.80
2023-01-13T17:40:15.848Z,8.00
2023-01-13T17:42:29.598Z,8.20
2023-01-13T17:44:42.419Z,7.20
2023-01-13T17:46:54.970Z,7.30
2023-01-13T17:49:10.685Z,9.20
2023-01-13T17:51:25.179Z,9.30
2023-01-13T17:53:40.767Z,8.90
2023-01-13T17:55:55.388Z,8.80
2023-01-13T17:58:07.883Z,16.10
2023-01-13T18:00:20.694Z,15.40
2023-01-13T18:02:33.412Z,10.90
2023-01-13T18:04:46.014Z,7.50
2023-01-13T18:06:58.549Z,9.50
2023-01-13T18:09:11.495Z,7.60
2023-01-13T18:11:24.188Z,7.50
2023-01-13T18:13:38.417Z,6.80
2023-01-13T18:16:00.739Z,8.00
2023-01-13T18:18:13.440Z,6.80
2023-01-13T18:20:44.779Z,7.20
2023-01-13T18:23:16.246Z,13.10
2023-01-13T18:25:47.255Z,13.20
2023-01-13T18:28:03.998Z,10.10
2023-01-13T18:30:16.637Z,7.90
2023-01-13T18:32:33.140Z,7.60
2023-01-13T18:34:46.515Z,12.50
2023-01-13T18:36:59.336Z,10.20
2023-01-13T18:39:12.008Z,13.60
2023-01-13T18:41:43.439Z,10.20
2023-01-13T18:43:55.963Z,12.60
2023-01-13T18:46:08.533Z,16.60
2023-01-13T18:48:21.102Z,17.20
2023-01-13T18:50:34.777Z,22.30
2023-01-13T18:52:47.571Z,21.20
2023-01-13T18:55:00.107Z,22.80
2023-01-13T18:57:13.751Z,19.80
2023-01-13T18:59:26.481Z,11.90
2023-01-13T19:01:39.160Z,11.80
2023-01-13T19:03:56.436Z,14.30
2023-01-13T19:06:11.686Z,16.10
2023-01-13T19:08:24.261Z,13.90
2023-01-13T19:10:39.705Z,12.90
2023-01-13T19:12:52.265Z,12.70
2023-01-13T19:15:05.174Z,11.00
2023-01-13T19:17:17.719Z,10.70
2023-01-13T19:19:31.462Z,14.50
2023-01-13T19:21:44.009Z,13.20
2023-01-13T19:23:56.930Z,12.70
2023-01-13T19:26:11.150Z,13.30
2023-01-13T19:28:23.731Z,13.90
2023-01-13T19:30:36.250Z,13.00
2023-01-13T19:32:48.810Z,13.10
2023-01-13T19:35:01.393Z,12.70
2023-01-13T19:37:14.096Z,13.80
2023-01-13T19:39:26.643Z,13.70
2023-01-13T19:41:57.499Z,13.00
2023-01-13T19:44:31.569Z,12.90
2023-01-13T19:46:44.128Z,14.50
2023-01-13T19:48:56.685Z,14.10
2023-01-13T19:51:10.083Z,14.00
2023-01-13T19:53:22.636Z,14.00
2023-01-13T19:55:35.374Z,15.60
2023-01-13T19:57:48.085Z,15.40
2023-01-13T20:00:00.857Z,14.60
2023-01-13T20:02:27.781Z,14.40
2023-01-13T20:04:44.629Z,13.60
2023-01-13T20:06:57.390Z,13.00
2023-01-13T20:09:09.971Z,13.80
2023-01-13T20:11:22.566Z,15.00
2023-01-13T20:13:35.188Z,13.80
2023-01-13T20:15:47.965Z,12.20
2023-01-13T20:18:00.758Z,11.90
2023-01-13T20:20:15.771Z,12.10
2023-01-13T20:22:28.427Z,10.80
2023-01-13T20:24:41.179Z,11.90
2023-01-13T20:26:54.550Z,12.60
2023-01-13T20:29:07.236Z,11.30
2023-01-13T20:31:20.073Z,10.30
2023-01-13T20:33:32.703Z,9.80
2023-01-13T20:35:45.357Z,9.60
2023-01-13T20:37:58.061Z,9.90
2023-01-13T20:40:14.932Z,10.20
2023-01-13T20:42:45.073Z,11.20
2023-01-13T20:44:59.945Z,10.10
2023-01-13T20:47:14.566Z,10.10
2023-01-13T20:49:27.976Z,9.70
2023-01-13T20:51:41.550Z,8.80
2023-01-13T20:53:56.723Z,9.20
2023-01-13T20:56:09.741Z,8.70
2023-01-13T20:58:22.459Z,8.40
2023-01-13T21:00:35.158Z,7.90
2023-01-13T21:02:47.760Z,7.70
2023-01-13T21:05:00.335Z,7.50
2023-01-13T21:07:13.194Z,7.90
2023-01-13T21:09:27.205Z,7.50
2023-01-13T21:11:58.137Z,7.30
2023-01-13T21:14:40.781Z,6.90
2023-01-13T21:16:53.309Z,6.20
2023-01-13T21:19:10.560Z,6.80
2023-01-13T21:21:23.177Z,5.80
2023-01-13T21:23:35.782Z,5.90
2023-01-13T21:25:48.335Z,5.80
2023-01-13T21:28:08.218Z,6.60
2023-01-13T21:30:21.012Z,7.80
2023-01-13T21:32:33.507Z,11.20
2023-01-13T21:34:46.519Z,12.80
2023-01-13T21:36:59.487Z,13.20
2023-01-13T21:39:14.126Z,13.00
2023-01-13T21:41:45.159Z,11.40
2023-01-13T21:44:16.639Z,8.10
2023-01-13T21:46:47.739Z,7.70
2023-01-13T21:49:00.374Z,7.40
2023-01-13T21:51:13.035Z,6.00
2023-01-13T21:53:25.604Z,6.30
2023-01-13T21:55:38.165Z,6.20
2023-01-13T21:58:11.653Z,5.80
2023-01-13T22:00:26.786Z,5.80
2023-01-13T22:02:39.611Z,5.90
2023-01-13T22:04:52.466Z,5.90
2023-01-13T22:07:06.537Z,5.80
2023-01-13T22:09:19.078Z,6.50
2023-01-13T22:11:32.388Z,7.50
2023-01-13T22:14:03.602Z,7.70
2023-01-13T22:16:16.233Z,7.20
2023-01-13T22:18:28.880Z,8.90
2023-01-13T22:20:42.036Z,14.30
2023-01-13T22:22:54.549Z,23.40
2023-01-13T22:25:10.951Z,18.50
2023-01-13T22:27:26.106Z,13.90
2023-01-13T22:29:38.701Z,8.40
2023-01-13T22:31:51.232Z,6.80
2023-01-13T22:34:04.014Z,6.70
2023-01-13T22:36:16.616Z,7.70
2023-01-13T22:38:29.198Z,7.00
2023-01-13T22:40:41.761Z,6.30
2023-01-13T22:42:54.382Z,7.40
2023-01-13T22:45:09.943Z,8.90
2023-01-13T22:47:22.490Z,8.70
2023-01-13T22:49:35.276Z,7.80
2023-01-13T22:51:47.823Z,7.70
2023-01-13T22:54:00.361Z,7.60
2023-01-13T22:56:18.564Z,8.10
2023-01-13T22:58:31.598Z,8.80
2023-01-13T23:00:44.132Z,8.50
2023-01-13T23:02:56.747Z,7.90
2023-01-13T23:05:09.588Z,7.40
2023-01-13T23:07:22.186Z,7.50
2023-01-13T23:09:34.743Z,7.10
2023-01-13T23:11:47.990Z,6.80
2023-01-13T23:14:04.277Z,6.60
2023-01-13T23:16:21.062Z,5.60
2023-01-13T23:18:34.409Z,5.50
2023-01-13T23:20:46.945Z,5.40
2023-01-13T23:22:59.683Z,5.00
2023-01-13T23:25:12.258Z,4.90
2023-01-13T23:27:24.813Z,5.10
2023-01-13T23:29:37.763Z,5.50
2023-01-13T23:31:50.370Z,6.20
2023-01-13T23:34:02.978Z,6.30
2023-01-13T23:36:21.471Z,7.00
2023-01-13T23:38:34.127Z,6.30
2023-01-13T23:40:46.661Z,5.60
2023-01-13T23:42:59.260Z,5.00
2023-01-13T23:45:11.872Z,5.60
2023-01-13T23:47:24.470Z,6.00
2023-01-13T23:49:37.025Z,6.00
2023-01-13T23:51:51.113Z,6.50
2023-01-13T23:54:03.752Z,7.30
2023-01-13T23:56:19.166Z,9.90
2023-01-13T23:58:33.628Z,10.90
